Time;durP1;ratioP1;P1;durP2;ratioP2;P2;SDS_P1;SDS_P2;PMS_P1;PMS_P2;Temp;Humidity;BMP_temperature;BMP_pressure;BME280_temperature;BME280_humidity;BME280_pressure;Samples;Min_cycle;Max_cycle;Signal;HPM_P1;HPM_P2
2022/11/06 00:00:17;;;;;;;14.68;8.98;;;;;;;10.08;70.65;100724.41;10363034;28;20061;-64
2022/11/06 00:10:39;;;;;;;18.15;8.70;;;;;;;9.99;70.75;100701.25;10387396;28;20120;-61
2022/11/06 00:15:40;;;;;;;16.42;8.27;;;;;;;9.93;71.03;100697.34;10384307;28;20112;-61
2022/11/06 00:20:42;;;;;;;16.23;8.32;;;;;;;9.88;70.84;100690.78;10392804;28;20148;-65
2022/11/06 00:25:43;;;;;;;15.45;8.25;;;;;;;9.85;70.94;100691.97;10383681;28;20077;-64
2022/11/06 00:30:45;;;;;;;16.17;8.40;;;;;;;9.82;71.36;100689.59;10382200;28;20067;-61
2022/11/06 00:35:47;;;;;;;16.63;7.00;;;;;;;9.83;71.17;100682.38;10395492;28;20140;-62
2022/11/06 00:40:48;;;;;;;16.02;8.73;;;;;;;9.90;71.03;100676.19;10384067;28;20052;-64
2022/11/06 00:45:49;;;;;;;16.42;8.70;;;;;;;9.86;71.16;100679.38;10391160;28;20052;-61
2022/11/06 00:50:51;;;;;;;17.58;7.95;;;;;;;9.90;71.35;100675.34;10388511;28;20606;-63
2022/11/06 00:55:52;;;;;;;14.68;8.05;;;;;;;9.91;71.13;100683.25;10381573;28;20050;-62
2022/11/06 01:00:53;;;;;;;16.75;9.30;;;;;;;9.96;71.08;100673.88;10382701;28;20482;-61
2022/11/06 01:06:01;;;;;;;13.80;8.20;;;;;;;9.94;70.98;100668.66;10367699;28;20084;-63
2022/11/06 01:11:21;;;;;;;15.45;7.60;;;;;;;9.90;70.97;100675.34;10386334;28;20117;-63
2022/11/06 01:16:24;;;;;;;15.02;7.32;;;;;;;9.94;70.71;100690.13;10383212;28;20089;-62
2022/11/06 01:21:32;;;;;;;17.20;7.97;;;;;;;9.86;71.08;100682.06;10385112;28;20124;-63
2022/11/06 01:26:33;;;;;;;16.30;8.02;;;;;;;9.88;71.11;100682.75;10383883;28;20160;-62
2022/11/06 01:31:43;;;;;;;15.40;8.00;;;;;;;9.82;70.97;100684.22;10377669;28;20042;-62
2022/11/06 01:36:45;;;;;;;20.05;8.45;;;;;;;9.71;71.42;100674.59;10388941;28;20041;-63
2022/11/06 01:41:49;;;;;;;19.48;8.38;;;;;;;9.68;71.13;100672.25;10381833;28;20069;-62
2022/11/06 01:46:51;;;;;;;16.67;8.05;;;;;;;9.57;71.21;100677.91;10381426;28;20125;-61
2022/11/06 01:51:56;;;;;;;15.48;7.40;;;;;;;9.53;71.29;100674.72;10384850;28;20080;-62
2022/11/06 01:57:00;;;;;;;18.50;8.27;;;;;;;9.53;70.97;100674.72;10381238;28;20152;-63
2022/11/06 02:02:01;;;;;;;17.70;9.02;;;;;;;9.61;70.79;100648.91;10383523;28;20129;-62
2022/11/06 02:07:04;;;;;;;17.38;8.23;;;;;;;9.46;71.19;100659.44;10370038;28;20554;-61
2022/11/06 02:12:31;;;;;;;16.83;9.18;;;;;;;9.32;71.61;100651.00;10388110;28;20125;-63
2022/11/06 02:17:45;;;;;;;19.52;9.32;;;;;;;9.32;71.41;100656.34;10386730;28;20052;-62
2022/11/06 02:23:29;;;;;;;17.77;9.90;;;;;;;9.25;71.77;100641.88;10393921;28;20048;-62
2022/11/06 02:28:38;;;;;;;16.27;10.07;;;;;;;9.29;71.70;100623.63;10274043;28;20409;-61
2022/11/06 02:33:47;;;;;;;18.65;8.70;;;;;;;9.34;71.91;100629.38;10386834;28;20041;-63
2022/11/06 02:38:56;;;;;;;19.23;9.45;;;;;;;9.40;71.89;100618.00;10389638;28;20136;-62
2022/11/06 02:43:58;;;;;;;17.73;9.45;;;;;;;9.50;71.47;100615.19;10391412;28;20111;-63
2022/11/06 02:49:06;;;;;;;15.05;9.07;;;;;;;9.52;71.57;100623.91;10389543;28;20064;-65
2022/11/06 02:54:10;;;;;;;16.15;9.52;;;;;;;9.50;71.55;100620.53;10387185;28;20559;-62
2022/11/06 02:59:26;;;;;;;22.00;10.23;;;;;;;9.47;71.90;100621.69;10389873;28;20144;-62
2022/11/06 03:04:42;;;;;;;23.80;9.50;;;;;;;9.43;72.18;100611.44;10365606;28;20444;-63
2022/11/06 03:09:44;;;;;;;21.55;11.10;;;;;;;9.49;72.12;100602.75;10387263;28;20497;-62
2022/11/06 03:14:55;;;;;;;18.25;10.50;;;;;;;9.51;72.15;100611.47;10387509;28;20120;-62
2022/11/06 03:20:22;;;;;;;21.42;11.07;;;;;;;9.47;72.14;100620.84;10384252;28;20458;-61
2022/11/06 03:25:42;;;;;;;22.42;11.38;;;;;;;9.53;72.03;100628.25;10386784;28;20112;-62
2022/11/06 03:30:49;;;;;;;19.42;11.48;;;;;;;9.48;72.37;100620.69;10369530;28;20053;-62
2022/11/06 03:35:57;;;;;;;22.55;10.93;;;;;;;9.55;71.88;100601.25;10385959;28;20070;-62
2022/11/06 03:41:05;;;;;;;18.25;9.05;;;;;;;9.63;71.45;100598.59;10390077;28;20073;-62
2022/11/06 03:46:14;;;;;;;20.98;10.27;;;;;;;9.54;71.88;100603.13;10384535;28;20076;-64
2022/11/06 03:51:24;;;;;;;17.25;9.52;;;;;;;9.56;71.86;100608.28;10381108;28;20048;-64
2022/11/06 03:56:58;;;;;;;18.50;9.15;;;;;;;9.54;71.61;100613.84;10380738;28;20084;-62
2022/11/06 04:02:01;;;;;;;17.67;9.02;;;;;;;9.45;71.75;100596.88;10359975;28;20056;-63
2022/11/06 04:07:12;;;;;;;17.52;9.68;;;;;;;9.43;71.49;100584.63;10383873;28;20530;-62
2022/11/06 04:17:40;;;;;;;22.35;10.95;;;;;;;9.22;72.06;100574.31;10390891;28;20064;-64
2022/11/06 04:22:58;;;;;;;21.55;9.77;;;;;;;9.06;72.03;100573.25;10386726;28;20466;-62
2022/11/06 04:28:47;;;;;;;16.45;10.02;;;;;;;9.01;71.92;100585.47;10387388;28;20136;-63
2022/11/06 04:33:57;;;;;;;20.27;10.45;;;;;;;9.02;71.90;100579.09;10323062;28;20053;-62
2022/11/06 04:39:11;;;;;;;17.77;10.60;;;;;;;8.97;72.15;100594.81;10388451;28;20050;-62
2022/11/06 04:44:22;;;;;;;18.20;9.55;;;;;;;8.95;72.03;100594.16;10384964;28;20041;-64
2022/11/06 04:49:27;;;;;;;21.25;10.10;;;;;;;8.97;71.50;100594.81;10385649;28;20089;-62
2022/11/06 04:54:31;;;;;;;19.40;10.52;;;;;;;8.90;72.14;100598.13;10381418;28;20069;-62
2022/11/06 04:59:35;;;;;;;20.10;10.02;;;;;;;8.85;72.21;100579.00;10385602;28;20124;-61
2022/11/06 05:04:36;;;;;;;19.15;10.18;;;;;;;8.72;72.52;100586.63;10380947;28;20045;-62
2022/11/06 05:09:38;;;;;;;21.60;10.20;;;;;;;8.67;72.59;100595.16;10385015;28;20053;-63
2022/11/06 05:14:39;;;;;;;22.60;11.68;;;;;;;8.68;72.63;100606.72;10388832;28;20132;-63
2022/11/06 05:19:40;;;;;;;19.00;9.77;;;;;;;8.78;71.81;100598.56;10382474;28;20163;-61
2022/11/06 05:24:42;;;;;;;19.35;10.90;;;;;;;8.83;72.26;100606.97;10376328;28;20041;-63
2022/11/06 05:29:44;;;;;;;20.38;11.00;;;;;;;8.87;71.97;100595.78;10371822;28;20813;-62
2022/11/06 05:34:45;;;;;;;23.50;10.73;;;;;;;8.85;71.57;100589.72;10381311;28;20137;-62
2022/11/06 05:39:47;;;;;;;22.48;10.93;;;;;;;8.85;72.25;100576.31;10385470;28;20052;-63
2022/11/06 05:44:48;;;;;;;21.98;12.23;;;;;;;8.80;71.80;100581.31;10390838;28;20050;-66
2022/11/06 05:49:49;;;;;;;21.65;10.90;;;;;;;8.73;71.81;100574.94;10394008;28;20110;-64
2022/11/06 05:54:51;;;;;;;21.23;10.93;;;;;;;8.73;71.52;100569.56;10389004;28;20133;-62
2022/11/06 05:59:52;;;;;;;25.63;11.98;;;;;;;8.66;71.59;100572.03;10390349;28;20038;-62
2022/11/06 06:04:54;;;;;;;24.40;10.75;;;;;;;8.59;71.36;100568.31;10390080;28;20070;-65
2022/11/06 06:09:55;;;;;;;22.85;11.80;;;;;;;8.47;72.29;100554.34;10388194;28;20096;-63
2022/11/06 06:14:57;;;;;;;29.17;11.40;;;;;;;8.37;72.05;100550.84;10388598;28;20100;-64
2022/11/06 06:19:58;;;;;;;26.65;12.75;;;;;;;8.28;72.62;100536.59;10387897;28;20157;-65
2022/11/06 06:25:00;;;;;;;26.83;12.13;;;;;;;8.34;71.92;100522.56;10385303;28;20042;-61
2022/11/06 06:30:02;;;;;;;28.77;12.35;;;;;;;8.37;71.26;100536.63;10385063;28;20094;-61
2022/11/06 06:35:04;;;;;;;25.35;12.65;;;;;;;8.26;71.37;100535.91;10389351;28;20049;-60
2022/11/06 06:40:06;;;;;;;28.08;12.82;;;;;;;8.23;72.11;100506.75;10392532;28;20541;-61
2022/11/06 06:45:07;;;;;;;28.25;12.20;;;;;;;8.25;71.95;100499.38;10391573;28;20124;-61
2022/11/06 06:50:09;;;;;;;32.10;12.20;;;;;;;8.24;71.63;100499.56;10386794;28;20077;-61
2022/11/06 06:55:10;;;;;;;23.02;11.85;;;;;;;8.16;72.33;100497.66;10373491;28;20081;-61
2022/11/06 07:00:12;;;;;;;23.35;12.20;;;;;;;8.16;72.17;100499.53;10386456;28;20447;-61
2022/11/06 07:05:13;;;;;;;26.73;12.18;;;;;;;8.12;71.98;100497.13;10386220;28;20069;-61
2022/11/06 07:10:15;;;;;;;30.25;12.25;;;;;;;8.14;71.75;100497.00;10385996;28;20089;-61
2022/11/06 07:15:17;;;;;;;30.17;13.85;;;;;;;8.15;72.29;100501.34;10386797;28;20064;-61
2022/11/06 07:20:18;;;;;;;21.75;10.88;;;;;;;8.14;71.90;100500.50;10389192;28;20128;-61
2022/11/06 07:25:19;;;;;;;24.40;11.40;;;;;;;8.20;71.86;100504.41;10387124;28;20149;-61
2022/11/06 07:30:21;;;;;;;19.48;10.68;;;;;;;8.31;72.02;100490.75;10383584;28;20121;-61
2022/11/06 07:35:22;;;;;;;17.70;8.93;;;;;;;8.41;72.25;100492.47;10384536;28;20391;-61
2022/11/06 07:40:23;;;;;;;19.55;10.40;;;;;;;8.44;71.66;100493.03;10385727;28;20103;-60
2022/11/06 07:45:25;;;;;;;17.55;9.52;;;;;;;8.50;71.51;100488.88;10392497;28;20140;-61
2022/11/06 07:50:26;;;;;;;17.88;9.20;;;;;;;8.52;72.14;100493.06;10387819;28;20161;-61
2022/11/06 07:55:28;;;;;;;18.38;9.27;;;;;;;8.62;71.63;100481.41;10382548;28;20050;-61
2022/11/06 08:00:29;;;;;;;16.20;8.95;;;;;;;8.66;72.02;100480.91;10394498;28;20055;-62
2022/11/06 08:05:31;;;;;;;20.20;10.20;;;;;;;8.73;71.67;100478.44;10388759;28;20037;-61
2022/11/06 08:10:32;;;;;;;22.92;11.68;;;;;;;8.80;71.68;100484.81;10390119;28;20163;-61
2022/11/06 08:15:37;;;;;;;19.92;10.60;;;;;;;8.92;71.99;100490.72;10385032;28;20051;-61
2022/11/06 08:20:39;;;;;;;23.95;11.35;;;;;;;9.02;72.00;100496.78;10390735;28;20080;-61
2022/11/06 08:25:40;;;;;;;22.20;11.35;;;;;;;9.07;72.23;100488.28;10386125;28;20079;-60
2022/11/06 08:30:41;;;;;;;21.08;11.48;;;;;;;9.07;72.41;100485.59;10386205;28;20056;-60
2022/11/06 08:35:43;;;;;;;20.90;11.43;;;;;;;9.23;72.19;100480.28;10384110;28;20149;-61
2022/11/06 08:40:44;;;;;;;18.83;10.68;;;;;;;9.42;71.95;100489.03;10386385;28;20160;-60
2022/11/06 08:45:53;;;;;;;21.48;12.27;;;;;;;9.61;71.63;100477.97;10384461;28;20132;-60
2022/11/06 08:50:55;;;;;;;22.98;12.13;;;;;;;9.85;71.25;100477.16;10384879;28;20496;-61
2022/11/06 08:55:56;;;;;;;25.58;12.38;;;;;;;9.99;71.45;100466.75;10392211;28;20527;-61
2022/11/06 09:00:58;;;;;;;17.92;10.07;;;;;;;10.12;71.24;100459.84;10392856;28;20448;-60
2022/11/06 09:05:59;;;;;;;16.88;9.70;;;;;;;10.23;71.04;100449.75;10388682;28;20037;-60
2022/11/06 09:11:06;;;;;;;21.25;10.50;;;;;;;10.43;70.65;100443.03;10387894;28;20207;-60
2022/11/06 09:16:07;;;;;;;22.60;12.05;;;;;;;10.50;70.40;100443.16;10381748;28;20046;-60
2022/11/06 09:21:16;;;;;;;19.90;10.73;;;;;;;10.50;70.27;100443.16;10386975;28;20073;-61
2022/11/06 09:26:17;;;;;;;17.92;8.50;;;;;;;10.58;70.18;100429.69;10393146;28;20133;-61
2022/11/06 09:31:18;;;;;;;19.90;10.38;;;;;;;10.62;70.13;100419.41;10383483;28;20129;-61
2022/11/06 09:36:20;;;;;;;18.27;9.13;;;;;;;10.70;69.81;100412.19;10387561;28;20099;-61
2022/11/06 09:41:49;;;;;;;14.35;6.88;;;;;;;10.85;69.73;100401.50;10389105;28;20110;-60
2022/11/06 09:46:52;;;;;;;12.82;7.32;;;;;;;10.89;69.32;100381.31;10389005;28;20042;-60
2022/11/06 09:52:37;;;;;;;13.07;5.90;;;;;;;10.97;68.65;100377.72;10390041;28;20052;-60
2022/11/06 09:57:54;;;;;;;11.18;6.05;;;;;;;11.01;68.61;100370.16;10371968;28;20050;-60
2022/11/06 10:03:04;;;;;;;15.40;6.43;;;;;;;11.05;68.27;100358.84;10388833;28;20044;-60
2022/11/06 10:08:14;;;;;;;12.82;6.13;;;;;;;11.19;67.58;100357.22;10384416;28;20061;-60
2022/11/06 10:13:37;;;;;;;14.00;5.13;;;;;;;11.43;67.32;100344.59;10387179;28;20524;-60
2022/11/06 10:18:55;;;;;;;10.80;5.75;;;;;;;11.50;66.74;100337.47;10380823;28;20531;-60
2022/11/06 10:24:01;;;;;;;8.75;4.70;;;;;;;11.52;66.72;100322.81;10383382;28;20145;-61
2022/11/06 10:29:17;;;;;;;10.35;4.82;;;;;;;11.54;66.53;100314.56;10390180;28;20081;-62
2022/11/06 10:34:24;;;;;;;12.80;5.32;;;;;;;11.62;65.99;100303.69;10392858;28;20048;-63
2022/11/06 10:39:31;;;;;;;10.35;5.55;;;;;;;11.69;65.86;100304.63;10386061;28;20130;-62
2022/11/06 10:44:36;;;;;;;;;;;;;;;11.84;66.43;100295.72;10369271;28;20384;-62
2022/11/06 10:49:46;;;;;;;10.48;4.88;;;;;;;12.10;65.64;100288.06;10382266;28;20015;-62
2022/11/06 10:55:04;;;;;;;10.13;4.28;;;;;;;12.08;64.94;100292.78;10389369;28;20069;-63
2022/11/06 11:00:11;;;;;;;4.97;3.38;;;;;;;12.24;64.31;100282.81;10391281;28;20076;-62
2022/11/06 11:05:15;;;;;;;6.93;3.83;;;;;;;12.32;63.95;100282.69;10395246;28;20441;-62
2022/11/06 11:10:23;;;;;;;4.15;2.90;;;;;;;12.52;63.68;100257.81;10390955;28;20124;-61
2022/11/06 11:15:25;;;;;;;;;;;;;;;12.65;64.40;100248.00;10392781;28;20136;-62
2022/11/06 11:20:30;;;;;;;5.53;3.38;;;;;;;12.76;63.62;100237.75;10391411;28;20003;-61
2022/11/06 11:25:31;;;;;;;5.97;3.15;;;;;;;12.81;63.09;100229.91;10383796;28;20065;-63
2022/11/06 11:30:33;;;;;;;5.22;3.35;;;;;;;12.93;62.92;100212.16;10389362;28;20132;-62
2022/11/06 11:35:37;;;;;;;10.15;3.40;;;;;;;13.00;62.88;100212.22;10388336;28;20141;-62
2022/11/06 11:40:39;;;;;;;5.72;2.78;;;;;;;13.12;62.13;100204.44;10383903;28;20144;-62
2022/11/06 11:45:41;;;;;;;8.00;3.30;;;;;;;13.18;62.16;100195.53;10388888;28;20053;-63
2022/11/06 11:50:43;;;;;;;8.20;2.38;;;;;;;13.38;61.77;100171.41;10387991;28;20061;-63
2022/11/06 11:55:48;;;;;;;4.97;2.58;;;;;;;13.39;61.60;100154.16;10384950;28;20045;-63
2022/11/06 12:00:53;;;;;;;3.92;2.03;;;;;;;13.51;61.10;100136.38;10388541;28;20484;-63
2022/11/06 12:06:11;;;;;;;6.60;2.70;;;;;;;13.68;60.61;100117.94;10386299;28;20082;-63
2022/11/06 12:11:18;;;;;;;3.38;1.58;;;;;;;13.77;60.66;100099.72;10390905;28;20132;-63
2022/11/06 12:16:20;;;;;;;4.22;1.60;;;;;;;13.84;60.20;100092.44;10382240;28;20128;-63
2022/11/06 12:21:47;;;;;;;9.80;1.90;;;;;;;13.97;59.98;100070.03;10387484;28;20049;-63
2022/11/06 12:26:57;;;;;;;3.28;1.77;;;;;;;14.05;59.43;100050.91;10381170;28;20142;-63
2022/11/06 12:32:20;;;;;;;3.35;1.50;;;;;;;14.21;59.04;100055.09;10386160;28;20069;-67
2022/11/06 12:37:36;;;;;;;5.35;1.73;;;;;;;14.25;59.18;100043.63;10382380;28;20147;-63
2022/11/06 12:42:40;;;;;;;3.25;0.98;;;;;;;14.35;58.54;100031.59;10383256;28;20080;-63
2022/11/06 12:47:56;;;;;;;3.00;0.98;;;;;;;14.43;57.85;100015.97;10386530;28;20045;-64
2022/11/06 12:52:57;;;;;;;2.38;0.82;;;;;;;14.49;58.13;100017.00;10388631;28;20121;-62
2022/11/06 12:58:27;;;;;;;3.08;1.50;;;;;;;14.63;57.49;100001.63;10385261;28;20107;-61
2022/11/06 13:03:58;;;;;;;4.47;1.08;;;;;;;14.79;56.92;99993.06;10382652;28;20158;-62
2022/11/06 13:09:05;;;;;;;1.70;0.80;;;;;;;14.91;56.36;99984.25;10376823;28;20050;-62
2022/11/06 13:14:28;;;;;;;1.27;0.83;;;;;;;14.95;55.84;99983.66;10385755;28;20444;-62
2022/11/06 13:19:46;;;;;;;3.42;1.05;;;;;;;14.99;55.56;99974.03;10380010;28;20045;-63
2022/11/06 13:25:19;;;;;;;12.45;6.68;;;;;;;15.02;55.30;99967.38;10378185;28;20129;-63
2022/11/06 13:30:23;;;;;;;2.08;0.90;;;;;;;15.07;55.15;99960.28;10381724;28;20052;-62
2022/11/06 13:35:25;;;;;;;2.95;0.85;;;;;;;15.13;54.88;99960.47;10381051;28;20045;-60
2022/11/06 13:40:36;;;;;;;1.35;0.93;;;;;;;15.14;54.66;99954.81;10368550;28;20131;-61
2022/11/06 13:46:06;;;;;;;0.90;0.52;;;;;;;15.15;54.55;99953.78;10369766;28;20073;-62
2022/11/06 13:51:40;;;;;;;1.35;0.68;;;;;;;15.22;54.47;99945.59;10391115;28;21219;-63
2022/11/06 13:57:23;;;;;;;4.40;0.90;;;;;;;15.24;54.71;99943.50;10376353;28;20456;-64
2022/11/06 14:02:35;;;;;;;1.30;0.80;;;;;;;15.25;54.69;99932.47;10381132;28;20140;-64
2022/11/06 14:07:40;;;;;;;2.20;0.80;;;;;;;15.18;55.00;99936.25;10389814;28;20099;-62
2022/11/06 14:12:45;;;;;;;2.58;1.00;;;;;;;15.14;55.20;99927.72;10395034;28;20416;-63
2022/11/06 14:18:00;;;;;;;1.73;0.95;;;;;;;15.02;55.37;99914.06;10396025;28;20069;-63
2022/11/06 14:23:27;;;;;;;1.83;0.90;;;;;;;14.93;55.54;99928.03;10397854;28;20084;-63
2022/11/06 14:28:32;;;;;;;1.30;0.90;;;;;;;14.94;55.91;99916.19;10384097;28;20496;-63
2022/11/06 14:33:57;;;;;;;2.65;0.98;;;;;;;14.86;55.88;99912.66;10380074;28;20053;-62
2022/11/06 14:38:58;;;;;;;2.13;0.80;;;;;;;14.81;56.20;99917.91;10394612;28;20128;-63
2022/11/06 14:44:17;;;;;;;3.00;1.00;;;;;;;14.68;56.53;99907.97;10378900;28;20048;-65
2022/11/06 14:49:25;;;;;;;2.20;1.05;;;;;;;14.56;56.55;99912.38;10361954;28;20058;-63
2022/11/06 14:54:27;;;;;;;3.17;1.20;;;;;;;14.51;56.81;99908.63;10385898;28;20140;-63
2022/11/06 14:59:33;;;;;;;2.13;1.70;;;;;;;14.50;56.83;99925.91;10395528;28;20065;-62
2022/11/06 15:04:43;;;;;;;3.10;1.67;;;;;;;14.42;57.06;99924.25;10383002;28;20498;-63
2022/11/06 15:09:46;;;;;;;2.08;1.40;;;;;;;14.39;56.93;99919.25;10387079;28;20070;-63
2022/11/06 15:14:47;;;;;;;3.28;1.45;;;;;;;14.38;57.16;99925.72;10388969;28;20046;-64
2022/11/06 15:20:04;;;;;;;2.78;1.50;;;;;;;14.21;57.43;99917.22;10368207;28;20140;-65
2022/11/06 15:25:09;;;;;;;5.07;2.70;;;;;;;13.97;57.45;99916.81;10387494;28;20077;-65
2022/11/06 15:30:16;;;;;;;6.30;3.55;;;;;;;13.97;57.35;99913.28;10391353;28;20045;-64
2022/11/06 15:35:22;;;;;;;6.47;3.63;;;;;;;13.97;57.29;99888.97;10383566;28;20060;-64
2022/11/06 15:40:28;;;;;;;6.70;3.47;;;;;;;13.83;57.57;99888.16;10390397;28;20037;-63
2022/11/06 15:45:29;;;;;;;7.82;4.60;;;;;;;13.69;58.09;99898.13;10387045;28;20052;-63
2022/11/06 15:50:33;;;;;;;9.93;4.05;;;;;;;13.69;57.79;99882.75;10388625;28;20499;-63
2022/11/06 15:55:37;;;;;;;7.07;4.07;;;;;;;13.75;58.00;99881.09;10386282;28;20078;-63
2022/11/06 16:00:40;;;;;;;7.68;4.00;;;;;;;13.73;58.12;99893.16;10388225;28;20500;-63
2022/11/06 16:05:42;;;;;;;9.45;4.15;;;;;;;13.69;58.21;99885.44;10391693;28;20444;-63
2022/11/06 16:10:47;;;;;;;6.75;3.70;;;;;;;13.66;58.52;99883.19;10391288;28;20073;-63
2022/11/06 16:15:57;;;;;;;8.00;4.30;;;;;;;13.60;58.71;99873.19;10412532;28;20056;-65
2022/11/06 16:21:07;;;;;;;5.95;4.13;;;;;;;13.51;59.30;99882.53;10416923;28;20440;-65
2022/11/06 16:26:21;;;;;;;7.65;4.47;;;;;;;13.44;59.09;99882.53;10390966;28;20125;-66
2022/11/06 16:31:27;;;;;;;10.88;5.80;;;;;;;13.16;60.13;99896.16;10396316;28;20053;-64
2022/11/06 16:36:30;;;;;;;11.18;4.85;;;;;;;13.19;60.03;99895.75;10398336;28;20144;-64
2022/11/06 16:41:58;;;;;;;6.18;3.78;;;;;;;13.15;60.26;99878.31;10393248;28;20071;-64
2022/11/06 16:47:08;;;;;;;;;;;;;;;13.09;60.41;99873.72;10389032;28;20045;-65
2022/11/06 16:52:31;;;;;;;14.35;6.53;;;;;;;13.04;60.22;99884.31;10375291;28;19922;-64
2022/11/06 16:57:35;;;;;;;7.43;4.47;;;;;;;12.89;60.84;99876.34;10399106;28;20056;-61
2022/11/06 17:02:37;;;;;;;7.65;4.78;;;;;;;12.98;61.22;99874.31;10388913;28;20073;-66
2022/11/06 17:07:40;;;;;;;8.73;4.90;;;;;;;12.99;61.15;99873.28;10389807;28;20054;-65
2022/11/06 17:12:41;;;;;;;7.85;4.60;;;;;;;12.93;60.89;99885.72;10392551;28;20056;-65
2022/11/06 17:17:42;;;;;;;8.75;3.85;;;;;;;12.81;61.56;99896.25;10389810;28;20061;-66
2022/11/06 17:22:45;;;;;;;7.50;4.05;;;;;;;12.78;61.70;99903.94;10392011;28;20080;-64
2022/11/06 17:27:46;;;;;;;8.23;4.00;;;;;;;12.78;61.72;99917.44;10391027;28;20152;-66
2022/11/06 17:32:47;;;;;;;7.15;3.60;;;;;;;12.82;61.57;99897.09;10388910;28;20128;-64
2022/11/06 17:37:49;;;;;;;10.98;3.95;;;;;;;12.87;61.34;99902.72;10400715;28;20053;-64
2022/11/06 17:42:50;;;;;;;8.80;4.40;;;;;;;12.72;62.17;99893.94;10397351;28;20069;-66
2022/11/06 17:47:51;;;;;;;10.75;5.57;;;;;;;12.54;63.36;99860.28;10394725;28;20037;-67
2022/11/06 17:52:53;;;;;;;11.13;6.18;;;;;;;12.39;64.34;99854.19;10391099;28;20149;-65
2022/11/06 17:57:54;;;;;;;7.55;5.13;;;;;;;12.25;65.63;99848.72;10395241;28;20045;-66
2022/11/06 18:02:56;;;;;;;9.18;6.03;;;;;;;12.15;65.84;99847.44;10389275;28;20053;-67
2022/11/06 18:08:02;;;;;;;10.70;6.32;;;;;;;12.08;66.48;99844.69;10392576;28;20487;-67
2022/11/06 18:13:05;;;;;;;11.63;5.78;;;;;;;11.99;66.81;99844.03;10386836;28;20077;-68
2022/11/06 18:18:07;;;;;;;7.38;5.30;;;;;;;12.01;66.97;99850.06;10393986;28;20125;-66
2022/11/06 18:23:08;;;;;;;10.40;5.45;;;;;;;11.94;66.95;99829.47;10391040;28;20132;-66
2022/11/06 18:28:09;;;;;;;10.13;6.20;;;;;;;11.89;67.42;99808.53;10392299;28;20046;-66
2022/11/06 18:33:11;;;;;;;8.40;5.40;;;;;;;11.88;66.92;99817.59;10395489;28;20057;-66
2022/11/06 18:38:13;;;;;;;7.93;5.28;;;;;;;11.80;67.10;99834.75;10388986;28;20128;-69
2022/11/06 18:43:15;;;;;;;6.95;4.93;;;;;;;11.67;67.50;99862.41;10389033;28;20053;-67
2022/11/06 18:48:16;;;;;;;8.38;5.65;;;;;;;11.69;67.33;99887.28;10390473;28;20073;-67
2022/11/06 18:53:22;;;;;;;8.60;5.50;;;;;;;11.66;67.65;99897.59;10388654;28;20373;-66
2022/11/06 18:58:23;;;;;;;6.85;5.20;;;;;;;11.74;67.66;99885.88;10390130;28;20577;-67
2022/11/06 19:03:24;;;;;;;9.45;5.93;;;;;;;11.83;67.52;99872.06;10387914;28;20073;-67
2022/11/06 19:08:26;;;;;;;9.77;5.57;;;;;;;11.90;67.26;99858.66;10386197;28;20151;-68
2022/11/06 19:13:27;;;;;;;7.00;4.50;;;;;;;11.91;67.31;99868.44;10387934;28;20124;-67
2022/11/06 19:18:30;;;;;;;7.40;4.68;;;;;;;11.78;67.97;99881.75;10390519;28;20049;-66
2022/11/06 19:23:31;;;;;;;7.55;5.03;;;;;;;11.92;67.60;99853.91;10374433;28;20129;-67
2022/11/06 19:28:33;;;;;;;6.72;4.70;;;;;;;11.96;67.46;99860.56;10376825;28;20124;-67
2022/11/06 19:33:36;;;;;;;7.55;4.07;;;;;;;11.83;67.83;99871.25;10386082;28;20103;-66
2022/11/06 19:38:38;;;;;;;7.80;5.45;;;;;;;11.85;67.88;99869.19;10388559;28;20076;-66
2022/11/06 19:43:39;;;;;;;7.40;4.90;;;;;;;11.83;68.32;99877.44;10391320;28;20046;-66
2022/11/06 19:48:41;;;;;;;6.90;4.47;;;;;;;11.71;67.93;99871.78;10387984;28;20049;-67
2022/11/06 19:53:42;;;;;;;6.13;3.85;;;;;;;11.62;68.29;99866.72;10374017;28;20455;-67
2022/11/06 19:58:43;;;;;;;7.28;3.47;;;;;;;11.56;68.50;99878.28;10389833;28;20124;-68
2022/11/06 20:03:45;;;;;;;5.90;3.13;;;;;;;11.57;67.78;99878.09;10386754;28;20069;-67
2022/11/06 20:08:49;;;;;;;7.47;3.03;;;;;;;11.49;68.09;99875.50;10391174;28;20132;-68
2022/11/06 20:13:50;;;;;;;4.07;2.60;;;;;;;11.50;67.65;99893.34;10386941;28;20100;-66
2022/11/06 20:18:56;;;;;;;4.85;2.38;;;;;;;11.57;67.26;99888.00;10388219;28;20277;-66
2022/11/06 20:23:58;;;;;;;4.60;2.97;;;;;;;11.55;67.45;99882.78;10383670;28;20132;-66
2022/11/06 20:28:59;;;;;;;3.92;2.75;;;;;;;11.56;66.69;99889.88;10387140;28;20073;-66
2022/11/06 20:34:01;;;;;;;3.35;2.13;;;;;;;11.53;66.63;99895.63;10383347;28;20478;-67
2022/11/06 20:39:02;;;;;;;4.25;2.92;;;;;;;11.48;66.32;99911.53;10387154;28;20076;-66
2022/11/06 20:44:04;;;;;;;3.13;2.00;;;;;;;11.49;66.35;99924.81;10390959;28;20129;-67
2022/11/06 20:49:05;;;;;;;3.40;1.83;;;;;;;11.50;66.16;99931.00;10389835;28;20050;-66
2022/11/06 20:54:07;;;;;;;5.18;2.25;;;;;;;11.61;65.41;99921.56;10388641;28;20080;-66
2022/11/06 20:59:09;;;;;;;3.47;1.58;;;;;;;11.66;65.45;99932.59;10392597;28;20811;-66
2022/11/06 21:04:10;;;;;;;2.55;1.67;;;;;;;11.77;64.61;99928.53;10387200;28;20073;-64
2022/11/06 21:09:12;;;;;;;4.75;2.08;;;;;;;11.81;64.61;99930.69;10381318;28;20057;-65
2022/11/06 21:14:13;;;;;;;3.28;2.28;;;;;;;11.95;64.26;99934.34;10383600;28;20061;-67
2022/11/06 21:19:15;;;;;;;4.10;2.17;;;;;;;11.92;63.89;99952.75;10384634;28;20228;-66
2022/11/06 21:24:16;;;;;;;6.20;2.45;;;;;;;11.93;63.85;99949.00;10380281;28;20045;-66
2022/11/06 21:29:17;;;;;;;3.15;2.10;;;;;;;11.94;63.65;99959.59;10382847;28;20128;-66
2022/11/06 21:34:19;;;;;;;5.25;2.67;;;;;;;12.03;62.94;99961.13;10381844;28;20045;-66
2022/11/06 21:39:21;;;;;;;4.10;2.17;;;;;;;12.05;63.18;99963.63;10386689;28;20080;-67
2022/11/06 21:44:22;;;;;;;4.00;2.10;;;;;;;12.04;63.13;99964.66;10390315;28;20133;-66
2022/11/06 21:49:24;;;;;;;3.75;2.40;;;;;;;12.03;62.96;99957.63;10387663;28;20539;-66
2022/11/06 21:59:45;;;;;;;5.97;2.58;;;;;;;12.01;62.67;99967.75;10388988;28;20037;-66
2022/11/06 22:04:46;;;;;;;4.53;1.60;;;;;;;12.06;62.91;99960.72;10387301;28;20136;-66
2022/11/06 22:09:48;;;;;;;6.88;2.75;;;;;;;12.06;62.82;99971.50;10385091;28;20128;-64
2022/11/06 22:14:49;;;;;;;4.38;1.70;;;;;;;12.08;62.79;99982.09;10375801;28;20056;-65
2022/11/06 22:19:50;;;;;;;2.42;1.52;;;;;;;12.06;62.72;99971.50;10386613;28;20133;-65
2022/11/06 22:24:52;;;;;;;2.65;1.65;;;;;;;12.05;62.83;99983.31;10393779;28;20033;-66
2022/11/06 22:29:53;;;;;;;3.85;1.38;;;;;;;12.03;62.85;99988.06;10391826;28;20136;-67
2022/11/06 22:34:55;;;;;;;2.75;1.42;;;;;;;12.01;62.47;99995.50;10382439;28;20420;-67
2022/11/06 22:39:56;;;;;;;3.05;1.27;;;;;;;12.04;63.02;99999.66;10391959;28;20038;-67
2022/11/06 22:44:57;;;;;;;3.28;2.05;;;;;;;12.03;62.71;100000.72;10397980;28;20121;-66
2022/11/06 22:49:59;;;;;;;2.63;1.42;;;;;;;12.06;62.82;99993.06;10399024;28;20050;-67
2022/11/06 22:55:00;;;;;;;1.90;1.02;;;;;;;12.00;62.60;100004.59;10383936;28;20065;-67
2022/11/06 23:00:04;;;;;;;3.08;1.50;;;;;;;12.12;62.16;100010.31;10391239;28;20124;-67
2022/11/06 23:05:06;;;;;;;3.08;1.60;;;;;;;12.05;62.88;100014.81;10380598;28;20129;-66
2022/11/06 23:10:08;;;;;;;3.17;1.70;;;;;;;12.14;62.80;100028.97;10393119;28;20440;-66
2022/11/06 23:15:09;;;;;;;3.00;1.40;;;;;;;12.07;62.85;100035.16;10393229;28;20141;-66
2022/11/06 23:20:11;;;;;;;5.50;1.67;;;;;;;12.17;62.64;100031.31;10398561;28;20053;-67
2022/11/06 23:25:13;;;;;;;4.15;1.60;;;;;;;12.12;63.13;100029.16;10390232;28;20116;-66
2022/11/06 23:30:15;;;;;;;2.70;1.60;;;;;;;12.19;63.13;100031.94;10391211;28;20500;-66
2022/11/06 23:35:16;;;;;;;1.55;1.08;;;;;;;12.22;62.75;100029.69;10393108;28;20133;-66
2022/11/06 23:40:21;;;;;;;2.70;1.30;;;;;;;12.25;63.15;100031.16;10397427;28;20057;-66
2022/11/06 23:50:45;;;;;;;3.72;1.00;;;;;;;12.26;63.27;100036.34;10389319;28;20125;-66